sensor_id;sensor_type;location;lat;lon;timestamp;P1;durP1;ratioP1;P2;durP2;ratioP2
17488;SDS011;8861;52.644;4.734;2023-11-21T00:01:26;6.03;;;3.60;;
17488;SDS011;8861;52.644;4.734;2023-11-21T00:03:53;5.60;;;3.53;;
17488;SDS011;8861;52.644;4.734;2023-11-21T00:06:20;4.57;;;3.10;;
17488;SDS011;8861;52.644;4.734;2023-11-21T00:08:49;5.97;;;3.60;;
17488;SDS011;8861;52.644;4.734;2023-11-21T00:11:16;5.13;;;3.50;;
17488;SDS011;8861;52.644;4.734;2023-11-21T00:13:43;5.43;;;3.63;;
17488;SDS011;8861;52.644;4.734;2023-11-21T00:16:10;7.53;;;4.10;;
17488;SDS011;8861;52.644;4.734;2023-11-21T00:18:37;5.13;;;3.70;;
17488;SDS011;8861;52.644;4.734;2023-11-21T00:21:04;7.20;;;3.90;;
17488;SDS011;8861;52.644;4.734;2023-11-21T00:23:32;5.70;;;3.70;;
17488;SDS011;8861;52.644;4.734;2023-11-21T00:26:00;8.07;;;4.07;;
17488;SDS011;8861;52.644;4.734;2023-11-21T00:28:29;5.67;;;3.77;;
17488;SDS011;8861;52.644;4.734;2023-11-21T00:30:56;5.20;;;3.50;;
17488;SDS011;8861;52.644;4.734;2023-11-21T00:33:23;5.63;;;3.50;;
17488;SDS011;8861;52.644;4.734;2023-11-21T00:35:50;7.80;;;3.70;;
17488;SDS011;8861;52.644;4.734;2023-11-21T00:38:17;5.37;;;3.20;;
17488;SDS011;8861;52.644;4.734;2023-11-21T00:40:45;4.60;;;3.50;;
17488;SDS011;8861;52.644;4.734;2023-11-21T00:43:13;6.17;;;3.63;;
17488;SDS011;8861;52.644;4.734;2023-11-21T00:45:40;4.83;;;3.20;;
17488;SDS011;8861;52.644;4.734;2023-11-21T00:48:08;7.63;;;3.27;;
17488;SDS011;8861;52.644;4.734;2023-11-21T00:50:35;6.23;;;3.33;;
17488;SDS011;8861;52.644;4.734;2023-11-21T00:53:02;6.07;;;3.10;;
17488;SDS011;8861;52.644;4.734;2023-11-21T00:55:29;6.83;;;3.33;;
17488;SDS011;8861;52.644;4.734;2023-11-21T00:57:56;5.40;;;3.10;;
17488;SDS011;8861;52.644;4.734;2023-11-21T01:00:25;6.17;;;3.63;;
17488;SDS011;8861;52.644;4.734;2023-11-21T01:02:52;4.23;;;3.53;;
17488;SDS011;8861;52.644;4.734;2023-11-21T01:05:19;7.03;;;3.73;;
17488;SDS011;8861;52.644;4.734;2023-11-21T01:07:46;5.60;;;3.50;;
17488;SDS011;8861;52.644;4.734;2023-11-21T01:10:13;4.33;;;3.23;;
17488;SDS011;8861;52.644;4.734;2023-11-21T01:12:42;7.00;;;3.10;;
17488;SDS011;8861;52.644;4.734;2023-11-21T01:15:09;5.07;;;3.10;;
17488;SDS011;8861;52.644;4.734;2023-11-21T01:17:38;4.97;;;3.23;;
17488;SDS011;8861;52.644;4.734;2023-11-21T01:20:06;5.70;;;3.23;;
17488;SDS011;8861;52.644;4.734;2023-11-21T01:22:37;4.60;;;3.10;;
17488;SDS011;8861;52.644;4.734;2023-11-21T01:25:05;4.27;;;2.93;;
17488;SDS011;8861;52.644;4.734;2023-11-21T01:27:32;3.00;;;2.53;;
17488;SDS011;8861;52.644;4.734;2023-11-21T01:30:00;4.23;;;2.73;;
17488;SDS011;8861;52.644;4.734;2023-11-21T01:32:27;3.73;;;2.93;;
17488;SDS011;8861;52.644;4.734;2023-11-21T01:34:55;3.30;;;2.67;;
17488;SDS011;8861;52.644;4.734;2023-11-21T01:37:23;4.23;;;2.70;;
17488;SDS011;8861;52.644;4.734;2023-11-21T01:39:52;3.27;;;2.80;;
17488;SDS011;8861;52.644;4.734;2023-11-21T01:42:20;3.40;;;2.50;;
17488;SDS011;8861;52.644;4.734;2023-11-21T01:44:47;3.37;;;2.73;;
17488;SDS011;8861;52.644;4.734;2023-11-21T01:47:14;3.47;;;2.60;;
17488;SDS011;8861;52.644;4.734;2023-11-21T01:49:42;4.20;;;3.00;;
17488;SDS011;8861;52.644;4.734;2023-11-21T01:52:12;3.67;;;3.00;;
17488;SDS011;8861;52.644;4.734;2023-11-21T01:54:40;3.90;;;2.80;;
17488;SDS011;8861;52.644;4.734;2023-11-21T01:57:07;4.60;;;3.03;;
17488;SDS011;8861;52.644;4.734;2023-11-21T01:59:35;3.47;;;2.73;;
17488;SDS011;8861;52.644;4.734;2023-11-21T02:02:03;3.60;;;2.83;;
17488;SDS011;8861;52.644;4.734;2023-11-21T02:04:31;4.03;;;2.67;;
17488;SDS011;8861;52.644;4.734;2023-11-21T02:06:58;3.40;;;2.70;;
17488;SDS011;8861;52.644;4.734;2023-11-21T02:09:27;4.00;;;2.80;;
17488;SDS011;8861;52.644;4.734;2023-11-21T02:11:55;3.40;;;2.53;;
17488;SDS011;8861;52.644;4.734;2023-11-21T02:14:21;4.30;;;2.90;;
17488;SDS011;8861;52.644;4.734;2023-11-21T02:16:50;6.57;;;3.33;;
17488;SDS011;8861;52.644;4.734;2023-11-21T02:19:18;6.63;;;2.90;;
17488;SDS011;8861;52.644;4.734;2023-11-21T02:21:47;3.20;;;2.60;;
17488;SDS011;8861;52.644;4.734;2023-11-21T02:24:18;3.57;;;2.43;;
17488;SDS011;8861;52.644;4.734;2023-11-21T02:26:45;4.73;;;2.60;;
17488;SDS011;8861;52.644;4.734;2023-11-21T02:29:12;3.97;;;2.37;;
17488;SDS011;8861;52.644;4.734;2023-11-21T02:31:41;3.83;;;2.50;;
17488;SDS011;8861;52.644;4.734;2023-11-21T02:34:13;2.73;;;2.00;;
17488;SDS011;8861;52.644;4.734;2023-11-21T02:36:40;3.13;;;2.20;;
17488;SDS011;8861;52.644;4.734;2023-11-21T02:39:08;1.83;;;1.70;;
17488;SDS011;8861;52.644;4.734;2023-11-21T02:41:37;2.33;;;1.70;;
17488;SDS011;8861;52.644;4.734;2023-11-21T02:44:05;1.73;;;1.63;;
17488;SDS011;8861;52.644;4.734;2023-11-21T02:46:32;3.53;;;1.90;;
17488;SDS011;8861;52.644;4.734;2023-11-21T02:49:00;2.00;;;1.80;;
17488;SDS011;8861;52.644;4.734;2023-11-21T02:51:27;2.43;;;1.83;;
17488;SDS011;8861;52.644;4.734;2023-11-21T02:53:54;1.60;;;1.50;;
17488;SDS011;8861;52.644;4.734;2023-11-21T02:56:24;2.13;;;1.70;;
17488;SDS011;8861;52.644;4.734;2023-11-21T02:58:55;2.07;;;1.60;;
17488;SDS011;8861;52.644;4.734;2023-11-21T03:01:22;1.60;;;1.50;;
17488;SDS011;8861;52.644;4.734;2023-11-21T03:03:50;1.93;;;1.57;;
17488;SDS011;8861;52.644;4.734;2023-11-21T03:06:17;1.67;;;1.50;;
17488;SDS011;8861;52.644;4.734;2023-11-21T03:08:44;1.80;;;1.50;;
17488;SDS011;8861;52.644;4.734;2023-11-21T03:11:12;1.73;;;1.60;;
17488;SDS011;8861;52.644;4.734;2023-11-21T03:13:39;1.73;;;1.30;;
17488;SDS011;8861;52.644;4.734;2023-11-21T03:16:09;1.93;;;1.67;;
17488;SDS011;8861;52.644;4.734;2023-11-21T03:18:36;1.77;;;1.67;;
17488;SDS011;8861;52.644;4.734;2023-11-21T03:21:03;1.43;;;1.33;;
17488;SDS011;8861;52.644;4.734;2023-11-21T03:23:31;1.50;;;1.40;;
17488;SDS011;8861;52.644;4.734;2023-11-21T03:25:58;2.00;;;1.80;;
17488;SDS011;8861;52.644;4.734;2023-11-21T03:28:25;2.00;;;1.80;;
17488;SDS011;8861;52.644;4.734;2023-11-21T03:30:53;1.50;;;1.40;;
17488;SDS011;8861;52.644;4.734;2023-11-21T03:33:21;2.27;;;1.73;;
17488;SDS011;8861;52.644;4.734;2023-11-21T03:35:48;2.20;;;1.70;;
17488;SDS011;8861;52.644;4.734;2023-11-21T03:38:15;2.20;;;1.63;;
17488;SDS011;8861;52.644;4.734;2023-11-21T03:40:42;2.00;;;1.73;;
17488;SDS011;8861;52.644;4.734;2023-11-21T03:43:09;1.73;;;1.63;;
17488;SDS011;8861;52.644;4.734;2023-11-21T03:45:36;3.00;;;2.00;;
17488;SDS011;8861;52.644;4.734;2023-11-21T03:48:05;1.53;;;1.43;;
17488;SDS011;8861;52.644;4.734;2023-11-21T03:50:34;2.03;;;1.80;;
17488;SDS011;8861;52.644;4.734;2023-11-21T03:53:02;1.60;;;1.50;;
17488;SDS011;8861;52.644;4.734;2023-11-21T03:55:29;1.70;;;1.60;;
17488;SDS011;8861;52.644;4.734;2023-11-21T03:57:57;1.63;;;1.53;;
17488;SDS011;8861;52.644;4.734;2023-11-21T04:00:24;2.00;;;1.80;;
17488;SDS011;8861;52.644;4.734;2023-11-21T04:02:52;1.77;;;1.67;;
17488;SDS011;8861;52.644;4.734;2023-11-21T04:05:20;2.00;;;1.83;;
17488;SDS011;8861;52.644;4.734;2023-11-21T04:07:50;2.77;;;1.97;;
17488;SDS011;8861;52.644;4.734;2023-11-21T04:10:17;1.90;;;1.70;;
17488;SDS011;8861;52.644;4.734;2023-11-21T04:12:44;2.40;;;1.80;;
17488;SDS011;8861;52.644;4.734;2023-11-21T04:15:12;2.87;;;2.20;;
17488;SDS011;8861;52.644;4.734;2023-11-21T04:17:39;2.50;;;2.00;;
17488;SDS011;8861;52.644;4.734;2023-11-21T04:20:08;2.37;;;2.17;;
17488;SDS011;8861;52.644;4.734;2023-11-21T04:22:36;3.20;;;2.00;;
17488;SDS011;8861;52.644;4.734;2023-11-21T04:25:08;2.63;;;2.10;;
17488;SDS011;8861;52.644;4.734;2023-11-21T04:27:36;2.97;;;1.90;;
17488;SDS011;8861;52.644;4.734;2023-11-21T04:30:03;2.83;;;2.03;;
17488;SDS011;8861;52.644;4.734;2023-11-21T04:32:31;2.67;;;2.30;;
17488;SDS011;8861;52.644;4.734;2023-11-21T04:35:00;3.90;;;2.60;;
17488;SDS011;8861;52.644;4.734;2023-11-21T04:37:27;2.63;;;2.10;;
17488;SDS011;8861;52.644;4.734;2023-11-21T04:39:54;4.07;;;2.80;;
17488;SDS011;8861;52.644;4.734;2023-11-21T04:42:23;3.70;;;2.67;;
17488;SDS011;8861;52.644;4.734;2023-11-21T04:44:50;6.97;;;3.67;;
17488;SDS011;8861;52.644;4.734;2023-11-21T04:47:17;8.40;;;4.03;;
17488;SDS011;8861;52.644;4.734;2023-11-21T04:49:45;14.43;;;5.27;;
17488;SDS011;8861;52.644;4.734;2023-11-21T04:52:13;8.70;;;5.37;;
17488;SDS011;8861;52.644;4.734;2023-11-21T04:54:40;8.53;;;5.20;;
17488;SDS011;8861;52.644;4.734;2023-11-21T04:57:08;8.07;;;4.67;;
17488;SDS011;8861;52.644;4.734;2023-11-21T04:59:36;10.70;;;5.60;;
17488;SDS011;8861;52.644;4.734;2023-11-21T05:02:03;12.37;;;5.67;;
17488;SDS011;8861;52.644;4.734;2023-11-21T05:04:30;10.00;;;5.63;;
17488;SDS011;8861;52.644;4.734;2023-11-21T05:06:58;10.80;;;5.07;;
17488;SDS011;8861;52.644;4.734;2023-11-21T05:09:25;9.73;;;4.90;;
17488;SDS011;8861;52.644;4.734;2023-11-21T05:11:53;9.73;;;5.03;;
17488;SDS011;8861;52.644;4.734;2023-11-21T05:14:20;14.30;;;5.43;;
17488;SDS011;8861;52.644;4.734;2023-11-21T05:16:49;10.47;;;4.87;;
17488;SDS011;8861;52.644;4.734;2023-11-21T05:19:17;9.83;;;4.90;;
17488;SDS011;8861;52.644;4.734;2023-11-21T05:21:44;12.60;;;5.30;;
17488;SDS011;8861;52.644;4.734;2023-11-21T05:24:12;15.73;;;5.40;;
17488;SDS011;8861;52.644;4.734;2023-11-21T05:26:39;12.83;;;5.10;;
17488;SDS011;8861;52.644;4.734;2023-11-21T05:29:09;19.07;;;5.63;;
17488;SDS011;8861;52.644;4.734;2023-11-21T05:31:36;10.57;;;4.60;;
17488;SDS011;8861;52.644;4.734;2023-11-21T05:34:04;7.97;;;4.50;;
17488;SDS011;8861;52.644;4.734;2023-11-21T05:36:31;11.30;;;5.17;;
17488;SDS011;8861;52.644;4.734;2023-11-21T05:38:58;12.90;;;5.23;;
17488;SDS011;8861;52.644;4.734;2023-11-21T05:41:25;12.27;;;5.67;;
17488;SDS011;8861;52.644;4.734;2023-11-21T05:43:52;10.17;;;4.60;;
17488;SDS011;8861;52.644;4.734;2023-11-21T05:46:19;13.30;;;5.07;;
17488;SDS011;8861;52.644;4.734;2023-11-21T05:48:46;7.00;;;4.13;;
17488;SDS011;8861;52.644;4.734;2023-11-21T05:51:15;8.73;;;3.70;;
17488;SDS011;8861;52.644;4.734;2023-11-21T05:53:42;8.13;;;3.40;;
17488;SDS011;8861;52.644;4.734;2023-11-21T05:56:09;6.73;;;3.20;;
17488;SDS011;8861;52.644;4.734;2023-11-21T05:58:36;6.17;;;3.23;;
17488;SDS011;8861;52.644;4.734;2023-11-21T06:01:05;5.17;;;3.20;;
17488;SDS011;8861;52.644;4.734;2023-11-21T06:03:34;7.70;;;3.90;;
17488;SDS011;8861;52.644;4.734;2023-11-21T06:06:01;8.33;;;4.23;;
17488;SDS011;8861;52.644;4.734;2023-11-21T06:08:30;10.53;;;5.13;;
17488;SDS011;8861;52.644;4.734;2023-11-21T06:10:57;12.27;;;5.07;;
17488;SDS011;8861;52.644;4.734;2023-11-21T06:13:24;11.00;;;5.30;;
17488;SDS011;8861;52.644;4.734;2023-11-21T06:15:51;15.23;;;5.93;;
17488;SDS011;8861;52.644;4.734;2023-11-21T06:18:19;18.27;;;7.00;;
17488;SDS011;8861;52.644;4.734;2023-11-21T06:20:46;12.53;;;6.10;;
17488;SDS011;8861;52.644;4.734;2023-11-21T06:23:13;14.40;;;5.83;;
17488;SDS011;8861;52.644;4.734;2023-11-21T06:25:42;15.83;;;6.67;;
17488;SDS011;8861;52.644;4.734;2023-11-21T06:28:09;11.87;;;5.70;;
17488;SDS011;8861;52.644;4.734;2023-11-21T06:30:36;16.80;;;7.10;;
17488;SDS011;8861;52.644;4.734;2023-11-21T06:33:03;15.87;;;6.33;;
17488;SDS011;8861;52.644;4.734;2023-11-21T06:35:31;18.57;;;6.87;;
17488;SDS011;8861;52.644;4.734;2023-11-21T06:38:00;18.00;;;6.57;;
17488;SDS011;8861;52.644;4.734;2023-11-21T06:40:27;10.90;;;5.93;;
17488;SDS011;8861;52.644;4.734;2023-11-21T06:42:56;14.07;;;6.70;;
17488;SDS011;8861;52.644;4.734;2023-11-21T06:45:23;16.90;;;7.60;;
17488;SDS011;8861;52.644;4.734;2023-11-21T06:47:50;17.87;;;8.30;;
17488;SDS011;8861;52.644;4.734;2023-11-21T06:50:17;15.00;;;6.97;;
17488;SDS011;8861;52.644;4.734;2023-11-21T06:52:45;14.53;;;6.70;;
17488;SDS011;8861;52.644;4.734;2023-11-21T06:55:12;14.60;;;6.63;;
17488;SDS011;8861;52.644;4.734;2023-11-21T06:57:39;9.93;;;5.87;;
17488;SDS011;8861;52.644;4.734;2023-11-21T07:00:09;9.07;;;5.40;;
17488;SDS011;8861;52.644;4.734;2023-11-21T07:02:36;13.53;;;6.03;;
17488;SDS011;8861;52.644;4.734;2023-11-21T07:05:04;16.53;;;6.87;;
17488;SDS011;8861;52.644;4.734;2023-11-21T07:07:32;12.07;;;6.30;;
17488;SDS011;8861;52.644;4.734;2023-11-21T07:10:00;11.47;;;6.10;;
17488;SDS011;8861;52.644;4.734;2023-11-21T07:12:28;8.93;;;5.60;;
17488;SDS011;8861;52.644;4.734;2023-11-21T07:14:56;9.53;;;5.60;;
17488;SDS011;8861;52.644;4.734;2023-11-21T07:17:25;10.70;;;5.30;;
17488;SDS011;8861;52.644;4.734;2023-11-21T07:19:52;8.37;;;5.33;;
17488;SDS011;8861;52.644;4.734;2023-11-21T07:22:20;8.07;;;4.50;;
17488;SDS011;8861;52.644;4.734;2023-11-21T07:24:48;8.33;;;4.80;;
17488;SDS011;8861;52.644;4.734;2023-11-21T07:27:16;9.03;;;4.90;;
17488;SDS011;8861;52.644;4.734;2023-11-21T07:29:43;10.57;;;5.53;;
17488;SDS011;8861;52.644;4.734;2023-11-21T07:32:10;8.53;;;5.40;;
17488;SDS011;8861;52.644;4.734;2023-11-21T07:34:39;9.20;;;5.40;;
17488;SDS011;8861;52.644;4.734;2023-11-21T07:37:07;11.70;;;6.40;;
17488;SDS011;8861;52.644;4.734;2023-11-21T07:39:35;13.80;;;6.57;;
17488;SDS011;8861;52.644;4.734;2023-11-21T07:42:02;10.87;;;6.53;;
17488;SDS011;8861;52.644;4.734;2023-11-21T07:44:29;9.10;;;5.50;;
17488;SDS011;8861;52.644;4.734;2023-11-21T07:46:56;13.23;;;6.83;;
17488;SDS011;8861;52.644;4.734;2023-11-21T07:49:23;10.67;;;5.67;;
17488;SDS011;8861;52.644;4.734;2023-11-21T07:51:53;10.73;;;5.83;;
17488;SDS011;8861;52.644;4.734;2023-11-21T07:54:20;11.17;;;6.50;;
17488;SDS011;8861;52.644;4.734;2023-11-21T07:56:47;10.97;;;6.00;;
17488;SDS011;8861;52.644;4.734;2023-11-21T07:59:14;13.50;;;6.30;;
17488;SDS011;8861;52.644;4.734;2023-11-21T08:01:43;13.63;;;6.90;;
17488;SDS011;8861;52.644;4.734;2023-11-21T08:04:10;9.63;;;6.00;;
17488;SDS011;8861;52.644;4.734;2023-11-21T08:06:38;10.87;;;6.27;;
17488;SDS011;8861;52.644;4.734;2023-11-21T08:09:08;11.40;;;6.10;;
17488;SDS011;8861;52.644;4.734;2023-11-21T08:11:37;10.50;;;5.83;;
17488;SDS011;8861;52.644;4.734;2023-11-21T08:14:04;9.73;;;5.67;;
17488;SDS011;8861;52.644;4.734;2023-11-21T08:16:31;10.10;;;5.80;;
17488;SDS011;8861;52.644;4.734;2023-11-21T08:18:58;8.53;;;5.37;;
17488;SDS011;8861;52.644;4.734;2023-11-21T08:21:26;10.27;;;6.20;;
17488;SDS011;8861;52.644;4.734;2023-11-21T08:23:54;11.43;;;6.60;;
17488;SDS011;8861;52.644;4.734;2023-11-21T08:26:22;11.90;;;6.60;;
17488;SDS011;8861;52.644;4.734;2023-11-21T08:28:49;15.17;;;7.00;;
17488;SDS011;8861;52.644;4.734;2023-11-21T08:31:22;12.93;;;6.33;;
17488;SDS011;8861;52.644;4.734;2023-11-21T08:33:50;14.07;;;7.13;;
17488;SDS011;8861;52.644;4.734;2023-11-21T08:36:18;13.23;;;6.90;;
17488;SDS011;8861;52.644;4.734;2023-11-21T08:38:46;11.73;;;6.13;;
17488;SDS011;8861;52.644;4.734;2023-11-21T08:41:14;9.37;;;5.87;;
17488;SDS011;8861;52.644;4.734;2023-11-21T08:43:42;10.37;;;5.60;;
17488;SDS011;8861;52.644;4.734;2023-11-21T08:46:10;12.57;;;6.60;;
17488;SDS011;8861;52.644;4.734;2023-11-21T08:48:37;10.40;;;6.00;;
17488;SDS011;8861;52.644;4.734;2023-11-21T08:51:04;13.90;;;6.13;;
17488;SDS011;8861;52.644;4.734;2023-11-21T08:53:32;11.30;;;6.27;;
17488;SDS011;8861;52.644;4.734;2023-11-21T08:55:59;11.00;;;5.73;;
17488;SDS011;8861;52.644;4.734;2023-11-21T08:58:26;11.07;;;5.90;;
17488;SDS011;8861;52.644;4.734;2023-11-21T09:00:54;11.10;;;6.10;;
17488;SDS011;8861;52.644;4.734;2023-11-21T09:03:21;9.17;;;5.53;;
17488;SDS011;8861;52.644;4.734;2023-11-21T09:05:48;12.90;;;7.17;;
17488;SDS011;8861;52.644;4.734;2023-11-21T09:08:15;9.13;;;5.83;;
17488;SDS011;8861;52.644;4.734;2023-11-21T09:10:42;11.17;;;6.27;;
17488;SDS011;8861;52.644;4.734;2023-11-21T09:13:12;10.47;;;6.43;;
17488;SDS011;8861;52.644;4.734;2023-11-21T09:15:41;9.27;;;6.03;;
17488;SDS011;8861;52.644;4.734;2023-11-21T09:18:12;9.70;;;5.53;;
17488;SDS011;8861;52.644;4.734;2023-11-21T09:20:40;9.83;;;5.97;;
17488;SDS011;8861;52.644;4.734;2023-11-21T09:23:08;11.63;;;6.57;;
17488;SDS011;8861;52.644;4.734;2023-11-21T09:25:35;10.27;;;6.47;;
17488;SDS011;8861;52.644;4.734;2023-11-21T09:28:03;11.70;;;6.73;;
17488;SDS011;8861;52.644;4.734;2023-11-21T09:30:33;13.47;;;7.57;;
17488;SDS011;8861;52.644;4.734;2023-11-21T09:33:00;13.77;;;7.77;;
17488;SDS011;8861;52.644;4.734;2023-11-21T09:35:28;12.73;;;7.80;;
17488;SDS011;8861;52.644;4.734;2023-11-21T09:37:55;12.53;;;7.10;;
17488;SDS011;8861;52.644;4.734;2023-11-21T09:40:22;12.93;;;7.50;;
17488;SDS011;8861;52.644;4.734;2023-11-21T09:42:51;14.00;;;7.50;;
17488;SDS011;8861;52.644;4.734;2023-11-21T09:45:24;9.13;;;6.70;;
17488;SDS011;8861;52.644;4.734;2023-11-21T09:47:52;11.60;;;7.47;;
17488;SDS011;8861;52.644;4.734;2023-11-21T09:50:21;11.37;;;7.33;;
17488;SDS011;8861;52.644;4.734;2023-11-21T09:52:52;12.87;;;6.83;;
17488;SDS011;8861;52.644;4.734;2023-11-21T09:55:24;15.17;;;9.17;;
17488;SDS011;8861;52.644;4.734;2023-11-21T09:57:54;14.97;;;8.67;;
17488;SDS011;8861;52.644;4.734;2023-11-21T10:00:22;12.60;;;7.83;;
17488;SDS011;8861;52.644;4.734;2023-11-21T10:02:50;12.57;;;8.00;;
17488;SDS011;8861;52.644;4.734;2023-11-21T10:05:18;15.53;;;8.43;;
17488;SDS011;8861;52.644;4.734;2023-11-21T10:07:47;12.93;;;8.23;;
17488;SDS011;8861;52.644;4.734;2023-11-21T10:10:18;9.70;;;7.00;;
17488;SDS011;8861;52.644;4.734;2023-11-21T10:12:49;11.90;;;7.77;;
17488;SDS011;8861;52.644;4.734;2023-11-21T10:15:20;11.73;;;7.87;;
17488;SDS011;8861;52.644;4.734;2023-11-21T10:17:48;10.80;;;7.57;;
17488;SDS011;8861;52.644;4.734;2023-11-21T10:20:18;12.57;;;8.30;;
17488;SDS011;8861;52.644;4.734;2023-11-21T10:22:45;13.10;;;8.87;;
17488;SDS011;8861;52.644;4.734;2023-11-21T10:25:14;16.20;;;9.33;;
17488;SDS011;8861;52.644;4.734;2023-11-21T10:27:41;13.90;;;9.20;;
17488;SDS011;8861;52.644;4.734;2023-11-21T10:30:09;12.30;;;8.27;;
17488;SDS011;8861;52.644;4.734;2023-11-21T10:32:37;12.53;;;8.47;;
17488;SDS011;8861;52.644;4.734;2023-11-21T10:35:05;11.20;;;7.47;;
17488;SDS011;8861;52.644;4.734;2023-11-21T10:37:35;10.13;;;7.07;;
17488;SDS011;8861;52.644;4.734;2023-11-21T10:40:05;12.47;;;8.10;;
17488;SDS011;8861;52.644;4.734;2023-11-21T10:42:34;12.00;;;7.77;;
17488;SDS011;8861;52.644;4.734;2023-11-21T10:45:01;12.50;;;8.13;;
17488;SDS011;8861;52.644;4.734;2023-11-21T10:47:30;9.83;;;7.83;;
17488;SDS011;8861;52.644;4.734;2023-11-21T10:49:58;12.13;;;8.33;;
17488;SDS011;8861;52.644;4.734;2023-11-21T10:52:27;13.67;;;8.23;;
17488;SDS011;8861;52.644;4.734;2023-11-21T10:54:54;14.20;;;8.83;;
17488;SDS011;8861;52.644;4.734;2023-11-21T10:57:24;12.60;;;7.87;;
17488;SDS011;8861;52.644;4.734;2023-11-21T10:59:53;12.43;;;8.20;;
17488;SDS011;8861;52.644;4.734;2023-11-21T11:02:23;13.40;;;8.10;;
17488;SDS011;8861;52.644;4.734;2023-11-21T11:04:53;12.93;;;7.50;;
17488;SDS011;8861;52.644;4.734;2023-11-21T11:07:21;13.23;;;7.90;;
17488;SDS011;8861;52.644;4.734;2023-11-21T11:09:53;9.90;;;6.90;;
17488;SDS011;8861;52.644;4.734;2023-11-21T11:12:20;10.47;;;6.83;;
17488;SDS011;8861;52.644;4.734;2023-11-21T11:14:47;17.87;;;8.97;;
17488;SDS011;8861;52.644;4.734;2023-11-21T11:17:16;14.03;;;8.57;;
17488;SDS011;8861;52.644;4.734;2023-11-21T11:19:45;12.27;;;7.80;;
17488;SDS011;8861;52.644;4.734;2023-11-21T11:22:17;12.23;;;7.90;;
17488;SDS011;8861;52.644;4.734;2023-11-21T11:25:00;11.47;;;7.43;;
17488;SDS011;8861;52.644;4.734;2023-11-21T11:27:40;12.13;;;7.40;;
17488;SDS011;8861;52.644;4.734;2023-11-21T11:30:19;11.00;;;7.20;;
17488;SDS011;8861;52.644;4.734;2023-11-21T11:33:02;10.23;;;7.67;;
17488;SDS011;8861;52.644;4.734;2023-11-21T11:35:37;11.90;;;7.60;;
17488;SDS011;8861;52.644;4.734;2023-11-21T11:38:12;10.67;;;7.40;;
17488;SDS011;8861;52.644;4.734;2023-11-21T11:40:40;11.13;;;6.80;;
17488;SDS011;8861;52.644;4.734;2023-11-21T11:43:07;13.83;;;8.03;;
17488;SDS011;8861;52.644;4.734;2023-11-21T11:45:35;11.13;;;6.90;;
17488;SDS011;8861;52.644;4.734;2023-11-21T11:48:07;10.77;;;7.00;;
17488;SDS011;8861;52.644;4.734;2023-11-21T11:50:41;11.00;;;6.60;;
17488;SDS011;8861;52.644;4.734;2023-11-21T11:53:28;12.87;;;7.07;;
17488;SDS011;8861;52.644;4.734;2023-11-21T11:58:47;10.70;;;6.93;;
17488;SDS011;8861;52.644;4.734;2023-11-21T12:01:16;10.10;;;6.80;;
17488;SDS011;8861;52.644;4.734;2023-11-21T12:03:46;11.83;;;7.33;;
17488;SDS011;8861;52.644;4.734;2023-11-21T12:06:56;11.47;;;7.13;;
17488;SDS011;8861;52.644;4.734;2023-11-21T12:09:27;11.53;;;6.83;;
17488;SDS011;8861;52.644;4.734;2023-11-21T12:11:56;10.87;;;6.30;;
17488;SDS011;8861;52.644;4.734;2023-11-21T12:14:23;9.63;;;5.90;;
17488;SDS011;8861;52.644;4.734;2023-11-21T12:16:50;8.43;;;5.87;;
17488;SDS011;8861;52.644;4.734;2023-11-21T12:19:19;9.07;;;5.93;;
17488;SDS011;8861;52.644;4.734;2023-11-21T12:21:48;8.73;;;5.80;;
17488;SDS011;8861;52.644;4.734;2023-11-21T12:24:15;9.87;;;6.30;;
17488;SDS011;8861;52.644;4.734;2023-11-21T12:26:43;8.87;;;5.87;;
17488;SDS011;8861;52.644;4.734;2023-11-21T12:29:10;8.63;;;5.17;;
17488;SDS011;8861;52.644;4.734;2023-11-21T12:31:37;8.20;;;5.60;;
17488;SDS011;8861;52.644;4.734;2023-11-21T12:34:05;8.60;;;5.50;;
17488;SDS011;8861;52.644;4.734;2023-11-21T12:36:35;8.50;;;5.70;;
17488;SDS011;8861;52.644;4.734;2023-11-21T12:39:02;8.70;;;5.67;;
17488;SDS011;8861;52.644;4.734;2023-11-21T12:41:30;8.50;;;5.60;;
17488;SDS011;8861;52.644;4.734;2023-11-21T12:43:57;7.90;;;5.70;;
17488;SDS011;8861;52.644;4.734;2023-11-21T12:46:24;8.67;;;5.97;;
17488;SDS011;8861;52.644;4.734;2023-11-21T12:48:54;7.97;;;5.63;;
17488;SDS011;8861;52.644;4.734;2023-11-21T12:51:21;9.00;;;5.90;;
17488;SDS011;8861;52.644;4.734;2023-11-21T12:53:50;9.27;;;5.90;;
17488;SDS011;8861;52.644;4.734;2023-11-21T12:56:17;7.73;;;5.27;;
17488;SDS011;8861;52.644;4.734;2023-11-21T12:58:48;9.17;;;5.53;;
17488;SDS011;8861;52.644;4.734;2023-11-21T13:01:16;8.40;;;5.53;;
17488;SDS011;8861;52.644;4.734;2023-11-21T13:03:46;7.83;;;5.77;;
17488;SDS011;8861;52.644;4.734;2023-11-21T13:06:16;7.50;;;5.03;;
17488;SDS011;8861;52.644;4.734;2023-11-21T13:08:44;6.87;;;5.20;;
17488;SDS011;8861;52.644;4.734;2023-11-21T13:11:13;7.53;;;5.23;;
17488;SDS011;8861;52.644;4.734;2023-11-21T13:13:41;6.67;;;4.87;;
17488;SDS011;8861;52.644;4.734;2023-11-21T13:16:09;8.03;;;6.03;;
17488;SDS011;8861;52.644;4.734;2023-11-21T13:18:36;7.33;;;5.20;;
17488;SDS011;8861;52.644;4.734;2023-11-21T13:21:05;6.50;;;5.17;;
17488;SDS011;8861;52.644;4.734;2023-11-21T13:23:38;7.87;;;5.90;;
17488;SDS011;8861;52.644;4.734;2023-11-21T13:26:06;6.87;;;5.07;;
17488;SDS011;8861;52.644;4.734;2023-11-21T13:28:35;9.20;;;6.17;;
17488;SDS011;8861;52.644;4.734;2023-11-21T13:31:03;8.00;;;5.93;;
17488;SDS011;8861;52.644;4.734;2023-11-21T13:33:45;8.53;;;6.40;;
17488;SDS011;8861;52.644;4.734;2023-11-21T13:36:16;12.70;;;8.17;;
17488;SDS011;8861;52.644;4.734;2023-11-21T13:38:47;11.90;;;8.07;;
17488;SDS011;8861;52.644;4.734;2023-11-21T13:41:15;10.40;;;7.67;;
17488;SDS011;8861;52.644;4.734;2023-11-21T13:43:44;12.57;;;8.13;;
17488;SDS011;8861;52.644;4.734;2023-11-21T13:46:17;10.17;;;7.50;;
17488;SDS011;8861;52.644;4.734;2023-11-21T13:48:47;10.97;;;7.93;;
17488;SDS011;8861;52.644;4.734;2023-11-21T13:51:16;12.47;;;8.13;;
17488;SDS011;8861;52.644;4.734;2023-11-21T13:53:43;11.37;;;7.90;;
17488;SDS011;8861;52.644;4.734;2023-11-21T13:56:13;12.63;;;8.60;;
17488;SDS011;8861;52.644;4.734;2023-11-21T13:58:46;11.33;;;8.30;;
17488;SDS011;8861;52.644;4.734;2023-11-21T14:01:16;10.33;;;7.40;;
17488;SDS011;8861;52.644;4.734;2023-11-21T14:04:06;9.13;;;7.13;;
17488;SDS011;8861;52.644;4.734;2023-11-21T14:06:44;9.20;;;6.43;;
17488;SDS011;8861;52.644;4.734;2023-11-21T14:09:14;9.10;;;6.70;;
17488;SDS011;8861;52.644;4.734;2023-11-21T14:11:48;7.97;;;6.23;;
17488;SDS011;8861;52.644;4.734;2023-11-21T14:14:18;7.57;;;6.20;;
17488;SDS011;8861;52.644;4.734;2023-11-21T14:16:45;8.13;;;6.40;;
17488;SDS011;8861;52.644;4.734;2023-11-21T14:19:12;8.23;;;6.47;;
17488;SDS011;8861;52.644;4.734;2023-11-21T14:21:43;8.77;;;6.90;;
17488;SDS011;8861;52.644;4.734;2023-11-21T14:24:10;8.47;;;6.70;;
17488;SDS011;8861;52.644;4.734;2023-11-21T14:26:39;8.87;;;6.70;;
17488;SDS011;8861;52.644;4.734;2023-11-21T14:29:07;10.13;;;7.60;;
17488;SDS011;8861;52.644;4.734;2023-11-21T14:31:39;9.47;;;6.60;;
17488;SDS011;8861;52.644;4.734;2023-11-21T14:34:06;8.77;;;7.30;;
17488;SDS011;8861;52.644;4.734;2023-11-21T14:36:37;8.90;;;7.07;;
17488;SDS011;8861;52.644;4.734;2023-11-21T14:39:05;9.17;;;7.07;;
17488;SDS011;8861;52.644;4.734;2023-11-21T14:41:36;9.53;;;6.90;;
17488;SDS011;8861;52.644;4.734;2023-11-21T14:44:04;9.60;;;7.37;;
17488;SDS011;8861;52.644;4.734;2023-11-21T14:46:36;8.93;;;7.10;;
17488;SDS011;8861;52.644;4.734;2023-11-21T14:49:09;9.13;;;7.20;;
17488;SDS011;8861;52.644;4.734;2023-11-21T14:51:44;11.23;;;8.07;;
17488;SDS011;8861;52.644;4.734;2023-11-21T14:54:25;9.47;;;7.27;;
17488;SDS011;8861;52.644;4.734;2023-11-21T14:57:05;9.27;;;7.13;;
17488;SDS011;8861;52.644;4.734;2023-11-21T14:59:36;10.27;;;7.77;;
17488;SDS011;8861;52.644;4.734;2023-11-21T15:02:04;9.70;;;7.40;;
17488;SDS011;8861;52.644;4.734;2023-11-21T15:04:41;8.77;;;6.97;;
17488;SDS011;8861;52.644;4.734;2023-11-21T15:07:07;8.47;;;6.53;;